Terminal Aerodrome Forecast
Issued by NWS

Home | Current Version | Previous Version | Graphics & Text | Print | Product List | Glossary On
Versions: 1 2 3 4 5 6 7 8 9 10 11 12 13 14 15
997
FTUS43 KIWX 161736
TAFSBN
TAF
KSBN 161736Z 1618/1718 29018G25KT 2SM -SHSN OVC015
      TEMPO 1618/1622 1SM -SN
     FM162200 29016G22KT 5SM -SHSN OVC015
     FM170200 29013KT P6SM VCSH OVC020
     FM171200 30017G22KT P6SM BKN020=

USA.gov is the U.S. government's official web portal to all federal, state and local government web resources and services.